sensor_id;sensor_type;location;lat;lon;timestamp;P1;durP1;ratioP1;P2;durP2;ratioP2
38264;SDS011;24062;47.480;8.768;2023-08-24T00:00:22;3.08;;;1.27;;
38264;SDS011;24062;47.480;8.768;2023-08-24T00:02:49;2.00;;;1.73;;
38264;SDS011;24062;47.480;8.768;2023-08-24T00:05:16;2.10;;;1.70;;
38264;SDS011;24062;47.480;8.768;2023-08-24T00:07:43;2.70;;;2.00;;
38264;SDS011;24062;47.480;8.768;2023-08-24T00:10:10;2.35;;;1.75;;
38264;SDS011;24062;47.480;8.768;2023-08-24T00:12:37;2.22;;;1.48;;
38264;SDS011;24062;47.480;8.768;2023-08-24T00:15:07;2.35;;;1.85;;
38264;SDS011;24062;47.480;8.768;2023-08-24T00:17:37;1.98;;;1.58;;
38264;SDS011;24062;47.480;8.768;2023-08-24T00:20:04;2.30;;;1.73;;
38264;SDS011;24062;47.480;8.768;2023-08-24T00:22:35;2.10;;;1.35;;
38264;SDS011;24062;47.480;8.768;2023-08-24T00:25:02;3.00;;;1.67;;
38264;SDS011;24062;47.480;8.768;2023-08-24T00:27:30;2.20;;;1.73;;
38264;SDS011;24062;47.480;8.768;2023-08-24T00:29:57;1.90;;;1.55;;
38264;SDS011;24062;47.480;8.768;2023-08-24T00:32:25;3.00;;;1.65;;
38264;SDS011;24062;47.480;8.768;2023-08-24T00:34:52;1.60;;;1.20;;
38264;SDS011;24062;47.480;8.768;2023-08-24T00:37:19;1.80;;;1.30;;
38264;SDS011;24062;47.480;8.768;2023-08-24T00:39:46;2.83;;;1.42;;
38264;SDS011;24062;47.480;8.768;2023-08-24T00:42:13;2.03;;;1.55;;
38264;SDS011;24062;47.480;8.768;2023-08-24T00:44:40;2.63;;;1.65;;
38264;SDS011;24062;47.480;8.768;2023-08-24T00:47:08;2.33;;;1.48;;
38264;SDS011;24062;47.480;8.768;2023-08-24T00:49:37;2.05;;;1.63;;
38264;SDS011;24062;47.480;8.768;2023-08-24T00:52:04;2.28;;;1.83;;
38264;SDS011;24062;47.480;8.768;2023-08-24T00:54:31;1.98;;;1.65;;
38264;SDS011;24062;47.480;8.768;2023-08-24T00:56:58;1.98;;;1.48;;
38264;SDS011;24062;47.480;8.768;2023-08-24T00:59:25;2.00;;;1.50;;
38264;SDS011;24062;47.480;8.768;2023-08-24T01:01:52;2.30;;;1.60;;
38264;SDS011;24062;47.480;8.768;2023-08-24T01:04:20;2.10;;;1.80;;
38264;SDS011;24062;47.480;8.768;2023-08-24T01:06:50;2.00;;;1.60;;
38264;SDS011;24062;47.480;8.768;2023-08-24T01:09:18;3.10;;;1.48;;
38264;SDS011;24062;47.480;8.768;2023-08-24T01:11:49;2.35;;;1.20;;
38264;SDS011;24062;47.480;8.768;2023-08-24T01:14:28;2.20;;;1.70;;
38264;SDS011;24062;47.480;8.768;2023-08-24T01:17:01;2.72;;;1.50;;
38264;SDS011;24062;47.480;8.768;2023-08-24T01:19:34;1.67;;;1.42;;
38264;SDS011;24062;47.480;8.768;2023-08-24T01:22:07;2.97;;;1.50;;
38264;SDS011;24062;47.480;8.768;2023-08-24T01:24:53;1.98;;;1.63;;
38264;SDS011;24062;47.480;8.768;2023-08-24T01:27:23;2.17;;;1.70;;
38264;SDS011;24062;47.480;8.768;2023-08-24T01:29:51;1.80;;;1.40;;
38264;SDS011;24062;47.480;8.768;2023-08-24T01:32:21;2.42;;;1.85;;
38264;SDS011;24062;47.480;8.768;2023-08-24T01:34:48;1.90;;;1.50;;
38264;SDS011;24062;47.480;8.768;2023-08-24T01:37:15;1.98;;;1.55;;
38264;SDS011;24062;47.480;8.768;2023-08-24T01:39:42;2.15;;;1.45;;
38264;SDS011;24062;47.480;8.768;2023-08-24T01:42:15;2.00;;;1.80;;
38264;SDS011;24062;47.480;8.768;2023-08-24T01:44:49;2.08;;;1.55;;
38264;SDS011;24062;47.480;8.768;2023-08-24T01:47:19;2.40;;;2.17;;
38264;SDS011;24062;47.480;8.768;2023-08-24T01:49:47;2.00;;;1.80;;
38264;SDS011;24062;47.480;8.768;2023-08-24T01:52:15;2.30;;;1.52;;
38264;SDS011;24062;47.480;8.768;2023-08-24T01:54:43;1.85;;;1.42;;
38264;SDS011;24062;47.480;8.768;2023-08-24T01:57:11;1.60;;;1.30;;
38264;SDS011;24062;47.480;8.768;2023-08-24T01:59:38;1.83;;;1.38;;
38264;SDS011;24062;47.480;8.768;2023-08-24T02:02:06;1.83;;;1.50;;
38264;SDS011;24062;47.480;8.768;2023-08-24T02:04:33;1.88;;;1.15;;
38264;SDS011;24062;47.480;8.768;2023-08-24T02:07:00;1.75;;;1.38;;
38264;SDS011;24062;47.480;8.768;2023-08-24T02:09:27;5.85;;;1.75;;
38264;SDS011;24062;47.480;8.768;2023-08-24T02:11:54;1.70;;;1.23;;
38264;SDS011;24062;47.480;8.768;2023-08-24T02:14:20;1.95;;;1.42;;
38264;SDS011;24062;47.480;8.768;2023-08-24T02:16:47;1.83;;;1.50;;
38264;SDS011;24062;47.480;8.768;2023-08-24T02:19:16;1.95;;;1.65;;
38264;SDS011;24062;47.480;8.768;2023-08-24T02:21:43;1.85;;;1.55;;
38264;SDS011;24062;47.480;8.768;2023-08-24T02:24:09;2.72;;;1.75;;
38264;SDS011;24062;47.480;8.768;2023-08-24T02:26:36;2.03;;;1.48;;
38264;SDS011;24062;47.480;8.768;2023-08-24T02:29:04;2.00;;;1.58;;
38264;SDS011;24062;47.480;8.768;2023-08-24T02:31:31;2.17;;;1.40;;
38264;SDS011;24062;47.480;8.768;2023-08-24T02:33:58;2.15;;;1.45;;
38264;SDS011;24062;47.480;8.768;2023-08-24T02:36:26;1.80;;;1.25;;
38264;SDS011;24062;47.480;8.768;2023-08-24T02:38:53;1.80;;;1.40;;
38264;SDS011;24062;47.480;8.768;2023-08-24T02:41:20;1.70;;;1.25;;
38264;SDS011;24062;47.480;8.768;2023-08-24T02:43:47;2.72;;;1.08;;
38264;SDS011;24062;47.480;8.768;2023-08-24T02:46:14;1.77;;;1.30;;
38264;SDS011;24062;47.480;8.768;2023-08-24T02:48:42;2.00;;;1.63;;
38264;SDS011;24062;47.480;8.768;2023-08-24T02:51:10;2.20;;;1.27;;
38264;SDS011;24062;47.480;8.768;2023-08-24T02:53:38;3.45;;;1.70;;
38264;SDS011;24062;47.480;8.768;2023-08-24T02:56:05;2.00;;;1.50;;
38264;SDS011;24062;47.480;8.768;2023-08-24T02:58:32;2.45;;;1.65;;
38264;SDS011;24062;47.480;8.768;2023-08-24T03:01:03;1.77;;;1.55;;
38264;SDS011;24062;47.480;8.768;2023-08-24T03:03:31;1.70;;;1.33;;
38264;SDS011;24062;47.480;8.768;2023-08-24T03:05:59;1.83;;;1.35;;
38264;SDS011;24062;47.480;8.768;2023-08-24T03:08:28;1.95;;;1.33;;
38264;SDS011;24062;47.480;8.768;2023-08-24T03:10:56;1.98;;;1.65;;
38264;SDS011;24062;47.480;8.768;2023-08-24T03:13:24;1.85;;;1.40;;
38264;SDS011;24062;47.480;8.768;2023-08-24T03:15:51;1.80;;;1.40;;
38264;SDS011;24062;47.480;8.768;2023-08-24T03:18:18;2.17;;;1.77;;
38264;SDS011;24062;47.480;8.768;2023-08-24T03:20:46;2.13;;;1.23;;
38264;SDS011;24062;47.480;8.768;2023-08-24T03:23:14;2.00;;;1.42;;
38264;SDS011;24062;47.480;8.768;2023-08-24T03:25:41;2.70;;;1.58;;
38264;SDS011;24062;47.480;8.768;2023-08-24T03:28:09;1.88;;;1.40;;
38264;SDS011;24062;47.480;8.768;2023-08-24T03:30:38;1.90;;;1.52;;
38264;SDS011;24062;47.480;8.768;2023-08-24T03:33:05;1.73;;;1.30;;
38264;SDS011;24062;47.480;8.768;2023-08-24T03:35:33;1.88;;;1.50;;
38264;SDS011;24062;47.480;8.768;2023-08-24T03:38:00;1.70;;;1.48;;
38264;SDS011;24062;47.480;8.768;2023-08-24T03:40:27;1.90;;;1.23;;
38264;SDS011;24062;47.480;8.768;2023-08-24T03:42:54;1.70;;;1.30;;
38264;SDS011;24062;47.480;8.768;2023-08-24T03:45:22;1.98;;;1.38;;
38264;SDS011;24062;47.480;8.768;2023-08-24T03:47:49;2.30;;;2.00;;
38264;SDS011;24062;47.480;8.768;2023-08-24T03:50:16;2.75;;;1.40;;
38264;SDS011;24062;47.480;8.768;2023-08-24T03:52:43;2.78;;;1.23;;
38264;SDS011;24062;47.480;8.768;2023-08-24T03:55:10;1.80;;;1.40;;
38264;SDS011;24062;47.480;8.768;2023-08-24T03:57:37;2.50;;;1.73;;
38264;SDS011;24062;47.480;8.768;2023-08-24T04:00:05;2.17;;;1.80;;
38264;SDS011;24062;47.480;8.768;2023-08-24T04:02:37;1.98;;;1.35;;
38264;SDS011;24062;47.480;8.768;2023-08-24T04:05:04;1.90;;;1.50;;
38264;SDS011;24062;47.480;8.768;2023-08-24T04:07:32;1.90;;;1.48;;
38264;SDS011;24062;47.480;8.768;2023-08-24T04:10:01;1.80;;;1.40;;
38264;SDS011;24062;47.480;8.768;2023-08-24T04:12:29;1.52;;;1.20;;
38264;SDS011;24062;47.480;8.768;2023-08-24T04:14:56;1.80;;;1.50;;
38264;SDS011;24062;47.480;8.768;2023-08-24T04:17:23;1.80;;;1.30;;
38264;SDS011;24062;47.480;8.768;2023-08-24T04:19:52;1.90;;;1.60;;
38264;SDS011;24062;47.480;8.768;2023-08-24T04:22:19;2.58;;;1.60;;
38264;SDS011;24062;47.480;8.768;2023-08-24T04:24:46;1.70;;;1.27;;
38264;SDS011;24062;47.480;8.768;2023-08-24T04:27:13;2.00;;;1.50;;
38264;SDS011;24062;47.480;8.768;2023-08-24T04:29:40;1.90;;;1.40;;
38264;SDS011;24062;47.480;8.768;2023-08-24T04:32:06;2.03;;;1.70;;
38264;SDS011;24062;47.480;8.768;2023-08-24T04:34:33;1.88;;;1.42;;
38264;SDS011;24062;47.480;8.768;2023-08-24T04:37:02;1.88;;;1.67;;
38264;SDS011;24062;47.480;8.768;2023-08-24T04:39:29;1.75;;;1.60;;
38264;SDS011;24062;47.480;8.768;2023-08-24T04:41:56;2.05;;;1.85;;
38264;SDS011;24062;47.480;8.768;2023-08-24T04:44:23;2.10;;;1.85;;
38264;SDS011;24062;47.480;8.768;2023-08-24T04:46:50;2.20;;;1.90;;
38264;SDS011;24062;47.480;8.768;2023-08-24T04:49:17;2.05;;;1.83;;
38264;SDS011;24062;47.480;8.768;2023-08-24T04:51:43;1.88;;;1.67;;
38264;SDS011;24062;47.480;8.768;2023-08-24T04:54:12;1.73;;;1.42;;
38264;SDS011;24062;47.480;8.768;2023-08-24T04:56:39;2.13;;;1.60;;
38264;SDS011;24062;47.480;8.768;2023-08-24T04:59:06;2.08;;;1.80;;
38264;SDS011;24062;47.480;8.768;2023-08-24T05:01:33;1.95;;;1.58;;
38264;SDS011;24062;47.480;8.768;2023-08-24T05:04:00;2.25;;;1.60;;
38264;SDS011;24062;47.480;8.768;2023-08-24T05:06:27;1.90;;;1.60;;
38264;SDS011;24062;47.480;8.768;2023-08-24T05:08:54;1.88;;;1.67;;
38264;SDS011;24062;47.480;8.768;2023-08-24T05:11:23;2.00;;;1.80;;
38264;SDS011;24062;47.480;8.768;2023-08-24T05:13:54;2.15;;;1.70;;
38264;SDS011;24062;47.480;8.768;2023-08-24T05:16:21;1.88;;;1.48;;
38264;SDS011;24062;47.480;8.768;2023-08-24T05:18:48;2.30;;;1.80;;
38264;SDS011;24062;47.480;8.768;2023-08-24T05:21:15;2.03;;;1.80;;
38264;SDS011;24062;47.480;8.768;2023-08-24T05:23:42;2.33;;;2.13;;
38264;SDS011;24062;47.480;8.768;2023-08-24T05:26:09;2.10;;;1.90;;
38264;SDS011;24062;47.480;8.768;2023-08-24T05:28:37;2.28;;;1.75;;
38264;SDS011;24062;47.480;8.768;2023-08-24T05:31:04;2.60;;;1.85;;
38264;SDS011;24062;47.480;8.768;2023-08-24T05:33:31;2.53;;;1.80;;
38264;SDS011;24062;47.480;8.768;2023-08-24T05:35:58;2.88;;;2.10;;
38264;SDS011;24062;47.480;8.768;2023-08-24T05:38:25;2.00;;;1.80;;
38264;SDS011;24062;47.480;8.768;2023-08-24T05:40:52;2.00;;;1.80;;
38264;SDS011;24062;47.480;8.768;2023-08-24T05:43:19;1.77;;;1.55;;
38264;SDS011;24062;47.480;8.768;2023-08-24T05:45:48;2.55;;;2.28;;
38264;SDS011;24062;47.480;8.768;2023-08-24T05:48:15;2.13;;;1.92;;
38264;SDS011;24062;47.480;8.768;2023-08-24T05:50:43;2.17;;;1.83;;
38264;SDS011;24062;47.480;8.768;2023-08-24T05:53:11;2.47;;;2.28;;
38264;SDS011;24062;47.480;8.768;2023-08-24T05:55:38;5.65;;;2.05;;
38264;SDS011;24062;47.480;8.768;2023-08-24T05:58:05;2.40;;;1.80;;
38264;SDS011;24062;47.480;8.768;2023-08-24T06:00:32;2.53;;;2.33;;
38264;SDS011;24062;47.480;8.768;2023-08-24T06:03:01;2.78;;;2.08;;
38264;SDS011;24062;47.480;8.768;2023-08-24T06:05:29;3.30;;;2.05;;
38264;SDS011;24062;47.480;8.768;2023-08-24T06:07:57;2.30;;;1.98;;
38264;SDS011;24062;47.480;8.768;2023-08-24T06:10:24;2.00;;;1.80;;
38264;SDS011;24062;47.480;8.768;2023-08-24T06:12:51;2.60;;;1.95;;
38264;SDS011;24062;47.480;8.768;2023-08-24T06:15:19;5.30;;;1.92;;
38264;SDS011;24062;47.480;8.768;2023-08-24T06:17:49;3.55;;;1.80;;
38264;SDS011;24062;47.480;8.768;2023-08-24T06:20:17;2.25;;;2.00;;
38264;SDS011;24062;47.480;8.768;2023-08-24T06:22:45;2.45;;;2.20;;
38264;SDS011;24062;47.480;8.768;2023-08-24T06:25:12;2.50;;;2.03;;
38264;SDS011;24062;47.480;8.768;2023-08-24T06:27:39;2.17;;;1.98;;
38264;SDS011;24062;47.480;8.768;2023-08-24T06:30:06;2.40;;;2.20;;
38264;SDS011;24062;47.480;8.768;2023-08-24T06:32:34;2.63;;;2.17;;
38264;SDS011;24062;47.480;8.768;2023-08-24T06:35:02;3.00;;;2.25;;
38264;SDS011;24062;47.480;8.768;2023-08-24T06:37:31;2.60;;;2.35;;
38264;SDS011;24062;47.480;8.768;2023-08-24T06:39:58;4.63;;;2.00;;
38264;SDS011;24062;47.480;8.768;2023-08-24T06:42:24;2.78;;;2.17;;
38264;SDS011;24062;47.480;8.768;2023-08-24T06:44:51;2.88;;;2.63;;
38264;SDS011;24062;47.480;8.768;2023-08-24T06:47:18;2.60;;;2.40;;
38264;SDS011;24062;47.480;8.768;2023-08-24T06:49:45;3.00;;;2.15;;
38264;SDS011;24062;47.480;8.768;2023-08-24T06:52:12;2.50;;;2.03;;
38264;SDS011;24062;47.480;8.768;2023-08-24T06:54:41;3.20;;;2.30;;
38264;SDS011;24062;47.480;8.768;2023-08-24T06:57:07;3.13;;;2.83;;
38264;SDS011;24062;47.480;8.768;2023-08-24T06:59:34;4.20;;;2.88;;
38264;SDS011;24062;47.480;8.768;2023-08-24T07:02:01;4.65;;;2.70;;
38264;SDS011;24062;47.480;8.768;2023-08-24T07:04:29;3.58;;;2.65;;
38264;SDS011;24062;47.480;8.768;2023-08-24T07:06:56;2.90;;;2.60;;
38264;SDS011;24062;47.480;8.768;2023-08-24T07:09:23;3.10;;;2.60;;
38264;SDS011;24062;47.480;8.768;2023-08-24T07:11:52;2.95;;;2.50;;
38264;SDS011;24062;47.480;8.768;2023-08-24T07:14:19;4.57;;;2.80;;
38264;SDS011;24062;47.480;8.768;2023-08-24T07:16:46;3.22;;;2.72;;
38264;SDS011;24062;47.480;8.768;2023-08-24T07:19:13;3.10;;;2.63;;
38264;SDS011;24062;47.480;8.768;2023-08-24T07:21:40;2.75;;;2.35;;
38264;SDS011;24062;47.480;8.768;2023-08-24T07:24:07;4.07;;;2.70;;
38264;SDS011;24062;47.480;8.768;2023-08-24T07:26:34;2.95;;;2.58;;
38264;SDS011;24062;47.480;8.768;2023-08-24T07:29:02;3.00;;;2.65;;
38264;SDS011;24062;47.480;8.768;2023-08-24T07:31:29;2.78;;;2.58;;
38264;SDS011;24062;47.480;8.768;2023-08-24T07:33:56;2.78;;;2.40;;
38264;SDS011;24062;47.480;8.768;2023-08-24T07:36:23;2.55;;;2.35;;
38264;SDS011;24062;47.480;8.768;2023-08-24T07:38:51;3.05;;;2.40;;
38264;SDS011;24062;47.480;8.768;2023-08-24T07:41:17;2.95;;;2.70;;
38264;SDS011;24062;47.480;8.768;2023-08-24T07:43:44;2.95;;;2.45;;
38264;SDS011;24062;47.480;8.768;2023-08-24T07:46:13;2.70;;;2.45;;
38264;SDS011;24062;47.480;8.768;2023-08-24T07:48:40;2.60;;;2.40;;
38264;SDS011;24062;47.480;8.768;2023-08-24T07:51:07;3.20;;;2.30;;
38264;SDS011;24062;47.480;8.768;2023-08-24T07:53:34;2.45;;;2.25;;
38264;SDS011;24062;47.480;8.768;2023-08-24T07:56:01;2.70;;;2.40;;
38264;SDS011;24062;47.480;8.768;2023-08-24T07:58:28;3.45;;;3.13;;
38264;SDS011;24062;47.480;8.768;2023-08-24T08:00:56;2.80;;;2.60;;
38264;SDS011;24062;47.480;8.768;2023-08-24T08:03:24;3.03;;;2.72;;
38264;SDS011;24062;47.480;8.768;2023-08-24T08:05:52;2.80;;;2.33;;
38264;SDS011;24062;47.480;8.768;2023-08-24T08:08:19;3.22;;;2.40;;
38264;SDS011;24062;47.480;8.768;2023-08-24T08:10:46;2.90;;;2.60;;
38264;SDS011;24062;47.480;8.768;2023-08-24T08:13:13;2.92;;;2.63;;
38264;SDS011;24062;47.480;8.768;2023-08-24T08:15:40;3.28;;;2.85;;
38264;SDS011;24062;47.480;8.768;2023-08-24T08:18:07;2.42;;;2.10;;
38264;SDS011;24062;47.480;8.768;2023-08-24T08:20:35;3.30;;;2.72;;
38264;SDS011;24062;47.480;8.768;2023-08-24T08:23:03;2.58;;;2.30;;
38264;SDS011;24062;47.480;8.768;2023-08-24T08:25:30;2.38;;;2.17;;
38264;SDS011;24062;47.480;8.768;2023-08-24T08:27:56;2.92;;;2.47;;
38264;SDS011;24062;47.480;8.768;2023-08-24T08:30:23;3.72;;;2.40;;
38264;SDS011;24062;47.480;8.768;2023-08-24T08:32:50;2.80;;;2.47;;
38264;SDS011;24062;47.480;8.768;2023-08-24T08:35:19;2.85;;;2.65;;
38264;SDS011;24062;47.480;8.768;2023-08-24T08:37:47;2.40;;;2.05;;
38264;SDS011;24062;47.480;8.768;2023-08-24T08:40:17;13.02;;;2.78;;
38264;SDS011;24062;47.480;8.768;2023-08-24T08:42:44;2.53;;;2.30;;
38264;SDS011;24062;47.480;8.768;2023-08-24T08:45:12;2.95;;;2.72;;
38264;SDS011;24062;47.480;8.768;2023-08-24T08:47:39;2.90;;;2.60;;
38264;SDS011;24062;47.480;8.768;2023-08-24T08:50:07;3.00;;;2.38;;
38264;SDS011;24062;47.480;8.768;2023-08-24T08:52:35;2.47;;;2.28;;
38264;SDS011;24062;47.480;8.768;2023-08-24T08:55:03;2.50;;;2.30;;
38264;SDS011;24062;47.480;8.768;2023-08-24T08:57:34;2.80;;;2.60;;
38264;SDS011;24062;47.480;8.768;2023-08-24T09:00:01;2.50;;;2.30;;
38264;SDS011;24062;47.480;8.768;2023-08-24T09:02:29;3.30;;;2.22;;
38264;SDS011;24062;47.480;8.768;2023-08-24T09:04:58;2.70;;;2.50;;
38264;SDS011;24062;47.480;8.768;2023-08-24T09:07:25;3.05;;;2.50;;
38264;SDS011;24062;47.480;8.768;2023-08-24T09:09:52;2.70;;;2.50;;
38264;SDS011;24062;47.480;8.768;2023-08-24T09:12:20;2.60;;;2.40;;
38264;SDS011;24062;47.480;8.768;2023-08-24T09:14:47;2.13;;;1.92;;
38264;SDS011;24062;47.480;8.768;2023-08-24T09:17:20;1.90;;;1.70;;
38264;SDS011;24062;47.480;8.768;2023-08-24T09:19:49;2.33;;;2.13;;
38264;SDS011;24062;47.480;8.768;2023-08-24T09:22:17;2.42;;;2.08;;
38264;SDS011;24062;47.480;8.768;2023-08-24T09:24:44;2.40;;;2.20;;
38264;SDS011;24062;47.480;8.768;2023-08-24T09:27:14;2.80;;;2.45;;
38264;SDS011;24062;47.480;8.768;2023-08-24T09:29:46;2.63;;;2.10;;
38264;SDS011;24062;47.480;8.768;2023-08-24T09:32:15;2.22;;;2.03;;
38264;SDS011;24062;47.480;8.768;2023-08-24T09:34:47;2.85;;;2.53;;
38264;SDS011;24062;47.480;8.768;2023-08-24T09:37:15;2.67;;;2.47;;
38264;SDS011;24062;47.480;8.768;2023-08-24T09:39:42;2.70;;;2.50;;
38264;SDS011;24062;47.480;8.768;2023-08-24T09:42:10;2.25;;;2.05;;
38264;SDS011;24062;47.480;8.768;2023-08-24T09:44:37;2.67;;;2.47;;
38264;SDS011;24062;47.480;8.768;2023-08-24T09:47:10;2.00;;;1.80;;
38264;SDS011;24062;47.480;8.768;2023-08-24T09:49:37;2.47;;;2.28;;
38264;SDS011;24062;47.480;8.768;2023-08-24T09:52:06;2.70;;;2.20;;
38264;SDS011;24062;47.480;8.768;2023-08-24T09:54:36;3.38;;;2.50;;
38264;SDS011;24062;47.480;8.768;2023-08-24T09:57:04;2.65;;;2.40;;
38264;SDS011;24062;47.480;8.768;2023-08-24T09:59:34;2.50;;;2.30;;
38264;SDS011;24062;47.480;8.768;2023-08-24T10:02:01;3.00;;;2.47;;
38264;SDS011;24062;47.480;8.768;2023-08-24T10:04:33;2.08;;;1.88;;
38264;SDS011;24062;47.480;8.768;2023-08-24T10:07:02;2.50;;;2.30;;
38264;SDS011;24062;47.480;8.768;2023-08-24T10:09:34;2.55;;;1.80;;
38264;SDS011;24062;47.480;8.768;2023-08-24T10:12:04;3.78;;;2.00;;
38264;SDS011;24062;47.480;8.768;2023-08-24T10:14:35;2.22;;;2.03;;
38264;SDS011;24062;47.480;8.768;2023-08-24T10:17:10;2.38;;;2.05;;
38264;SDS011;24062;47.480;8.768;2023-08-24T10:19:39;2.70;;;2.10;;
38264;SDS011;24062;47.480;8.768;2023-08-24T10:22:07;2.55;;;2.35;;
38264;SDS011;24062;47.480;8.768;2023-08-24T10:24:35;2.42;;;2.20;;
38264;SDS011;24062;47.480;8.768;2023-08-24T10:27:02;2.13;;;1.90;;
38264;SDS011;24062;47.480;8.768;2023-08-24T10:29:30;2.60;;;2.40;;
38264;SDS011;24062;47.480;8.768;2023-08-24T10:31:57;3.33;;;2.08;;
38264;SDS011;24062;47.480;8.768;2023-08-24T10:34:24;2.13;;;1.83;;
38264;SDS011;24062;47.480;8.768;2023-08-24T10:36:53;2.58;;;2.22;;
38264;SDS011;24062;47.480;8.768;2023-08-24T10:39:26;2.38;;;2.17;;
38264;SDS011;24062;47.480;8.768;2023-08-24T10:41:54;2.17;;;1.98;;
38264;SDS011;24062;47.480;8.768;2023-08-24T10:44:21;2.20;;;2.00;;
38264;SDS011;24062;47.480;8.768;2023-08-24T10:47:06;2.00;;;1.80;;
38264;SDS011;24062;47.480;8.768;2023-08-24T10:49:34;2.15;;;1.95;;
38264;SDS011;24062;47.480;8.768;2023-08-24T10:52:18;2.13;;;1.92;;
38264;SDS011;24062;47.480;8.768;2023-08-24T10:54:46;1.80;;;1.60;;
38264;SDS011;24062;47.480;8.768;2023-08-24T10:57:18;2.50;;;2.30;;
38264;SDS011;24062;47.480;8.768;2023-08-24T10:59:57;2.30;;;2.10;;
38264;SDS011;24062;47.480;8.768;2023-08-24T11:02:30;2.40;;;2.20;;
38264;SDS011;24062;47.480;8.768;2023-08-24T11:05:07;2.22;;;1.83;;
38264;SDS011;24062;47.480;8.768;2023-08-24T11:07:52;2.05;;;1.85;;
38264;SDS011;24062;47.480;8.768;2023-08-24T11:10:21;2.55;;;2.20;;
38264;SDS011;24062;47.480;8.768;2023-08-24T11:13:04;2.38;;;1.90;;
38264;SDS011;24062;47.480;8.768;2023-08-24T11:15:32;2.33;;;1.90;;
38264;SDS011;24062;47.480;8.768;2023-08-24T11:20:55;2.28;;;1.95;;
38264;SDS011;24062;47.480;8.768;2023-08-24T11:23:24;2.40;;;2.20;;
38264;SDS011;24062;47.480;8.768;2023-08-24T11:25:51;2.08;;;1.75;;
38264;SDS011;24062;47.480;8.768;2023-08-24T11:28:22;2.00;;;1.80;;
38264;SDS011;24062;47.480;8.768;2023-08-24T11:30:50;2.00;;;1.70;;
38264;SDS011;24062;47.480;8.768;2023-08-24T11:33:26;1.92;;;1.73;;
38264;SDS011;24062;47.480;8.768;2023-08-24T11:35:55;2.00;;;1.77;;
38264;SDS011;24062;47.480;8.768;2023-08-24T11:38:23;2.15;;;1.92;;
38264;SDS011;24062;47.480;8.768;2023-08-24T11:40:50;2.42;;;1.80;;
38264;SDS011;24062;47.480;8.768;2023-08-24T11:43:22;1.95;;;1.58;;
38264;SDS011;24062;47.480;8.768;2023-08-24T11:45:51;1.90;;;1.55;;
38264;SDS011;24062;47.480;8.768;2023-08-24T11:48:19;2.95;;;1.60;;
38264;SDS011;24062;47.480;8.768;2023-08-24T11:50:50;2.00;;;1.80;;
38264;SDS011;24062;47.480;8.768;2023-08-24T11:53:19;2.33;;;2.13;;
38264;SDS011;24062;47.480;8.768;2023-08-24T11:55:47;2.25;;;2.05;;
38264;SDS011;24062;47.480;8.768;2023-08-24T11:58:14;2.05;;;1.65;;
38264;SDS011;24062;47.480;8.768;2023-08-24T12:00:42;2.00;;;1.80;;
38264;SDS011;24062;47.480;8.768;2023-08-24T12:03:09;2.08;;;1.88;;
38264;SDS011;24062;47.480;8.768;2023-08-24T12:05:36;1.80;;;1.52;;
38264;SDS011;24062;47.480;8.768;2023-08-24T12:08:04;2.20;;;1.80;;
38264;SDS011;24062;47.480;8.768;2023-08-24T12:10:31;2.08;;;1.75;;
38264;SDS011;24062;47.480;8.768;2023-08-24T12:13:02;1.98;;;1.38;;
38264;SDS011;24062;47.480;8.768;2023-08-24T12:15:30;1.85;;;1.65;;
38264;SDS011;24062;47.480;8.768;2023-08-24T12:18:06;2.95;;;1.90;;
38264;SDS011;24062;47.480;8.768;2023-08-24T12:20:34;1.80;;;1.60;;
38264;SDS011;24062;47.480;8.768;2023-08-24T12:23:01;2.20;;;1.77;;
38264;SDS011;24062;47.480;8.768;2023-08-24T12:25:28;2.10;;;1.88;;
38264;SDS011;24062;47.480;8.768;2023-08-24T12:28:09;2.03;;;1.80;;
38264;SDS011;24062;47.480;8.768;2023-08-24T12:30:43;2.58;;;1.95;;
38264;SDS011;24062;47.480;8.768;2023-08-24T12:33:20;2.15;;;1.88;;
38264;SDS011;24062;47.480;8.768;2023-08-24T12:35:48;2.05;;;1.67;;
38264;SDS011;24062;47.480;8.768;2023-08-24T12:38:15;2.08;;;1.85;;
38264;SDS011;24062;47.480;8.768;2023-08-24T12:40:43;2.22;;;1.45;;
38264;SDS011;24062;47.480;8.768;2023-08-24T12:43:11;2.30;;;2.10;;
38264;SDS011;24062;47.480;8.768;2023-08-24T12:45:38;3.25;;;1.83;;
38264;SDS011;24062;47.480;8.768;2023-08-24T12:48:06;2.65;;;1.70;;
38264;SDS011;24062;47.480;8.768;2023-08-24T12:50:33;1.85;;;1.38;;
38264;SDS011;24062;47.480;8.768;2023-08-24T12:53:00;3.38;;;1.42;;
38264;SDS011;24062;47.480;8.768;2023-08-24T12:55:28;4.10;;;1.98;;
38264;SDS011;24062;47.480;8.768;2023-08-24T12:57:56;2.45;;;2.10;;
38264;SDS011;24062;47.480;8.768;2023-08-24T13:00:24;3.55;;;2.40;;
38264;SDS011;24062;47.480;8.768;2023-08-24T13:02:52;3.55;;;2.85;;
38264;SDS011;24062;47.480;8.768;2023-08-24T13:05:19;4.75;;;2.85;;
38264;SDS011;24062;47.480;8.768;2023-08-24T13:07:46;6.50;;;2.90;;
38264;SDS011;24062;47.480;8.768;2023-08-24T13:10:13;4.10;;;3.00;;
38264;SDS011;24062;47.480;8.768;2023-08-24T13:12:40;4.68;;;3.13;;
38264;SDS011;24062;47.480;8.768;2023-08-24T13:15:07;5.93;;;3.70;;
38264;SDS011;24062;47.480;8.768;2023-08-24T13:17:37;10.60;;;3.50;;
38264;SDS011;24062;47.480;8.768;2023-08-24T13:20:05;5.65;;;3.42;;
38264;SDS011;24062;47.480;8.768;2023-08-24T13:22:33;5.70;;;3.85;;
38264;SDS011;24062;47.480;8.768;2023-08-24T13:25:00;12.95;;;4.60;;
38264;SDS011;24062;47.480;8.768;2023-08-24T13:27:27;3.97;;;3.40;;
38264;SDS011;24062;47.480;8.768;2023-08-24T13:29:54;6.07;;;3.55;;
38264;SDS011;24062;47.480;8.768;2023-08-24T13:32:22;6.30;;;3.85;;
38264;SDS011;24062;47.480;8.768;2023-08-24T13:34:51;4.85;;;3.58;;
38264;SDS011;24062;47.480;8.768;2023-08-24T13:37:17;6.30;;;4.25;;
38264;SDS011;24062;47.480;8.768;2023-08-24T13:39:44;6.35;;;3.85;;
38264;SDS011;24062;47.480;8.768;2023-08-24T13:42:11;8.23;;;4.15;;
38264;SDS011;24062;47.480;8.768;2023-08-24T13:44:39;8.70;;;3.67;;
38264;SDS011;24062;47.480;8.768;2023-08-24T13:47:06;4.78;;;3.33;;
38264;SDS011;24062;47.480;8.768;2023-08-24T13:49:32;9.98;;;4.00;;
38264;SDS011;24062;47.480;8.768;2023-08-24T13:52:01;7.75;;;3.53;;
38264;SDS011;24062;47.480;8.768;2023-08-24T13:54:28;6.30;;;3.50;;
38264;SDS011;24062;47.480;8.768;2023-08-24T13:56:55;6.50;;;3.63;;
38264;SDS011;24062;47.480;8.768;2023-08-24T13:59:23;5.30;;;3.50;;
38264;SDS011;24062;47.480;8.768;2023-08-24T14:01:50;9.18;;;3.22;;
38264;SDS011;24062;47.480;8.768;2023-08-24T14:04:17;11.57;;;3.70;;
38264;SDS011;24062;47.480;8.768;2023-08-24T14:06:44;6.10;;;3.38;;
38264;SDS011;24062;47.480;8.768;2023-08-24T14:09:14;7.53;;;3.85;;
38264;SDS011;24062;47.480;8.768;2023-08-24T14:11:41;7.18;;;3.78;;
38264;SDS011;24062;47.480;8.768;2023-08-24T14:14:08;7.60;;;4.15;;
38264;SDS011;24062;47.480;8.768;2023-08-24T14:16:36;11.95;;;4.03;;
38264;SDS011;24062;47.480;8.768;2023-08-24T14:19:02;8.77;;;3.70;;
38264;SDS011;24062;47.480;8.768;2023-08-24T14:21:29;6.43;;;3.92;;
38264;SDS011;24062;47.480;8.768;2023-08-24T14:23:56;5.72;;;3.80;;
38264;SDS011;24062;47.480;8.768;2023-08-24T14:26:25;5.97;;;3.33;;
38264;SDS011;24062;47.480;8.768;2023-08-24T14:28:53;4.70;;;3.47;;
38264;SDS011;24062;47.480;8.768;2023-08-24T14:31:22;8.80;;;4.03;;
38264;SDS011;24062;47.480;8.768;2023-08-24T14:33:49;6.88;;;3.22;;
38264;SDS011;24062;47.480;8.768;2023-08-24T14:36:17;9.93;;;3.70;;
38264;SDS011;24062;47.480;8.768;2023-08-24T14:38:45;9.40;;;3.55;;
38264;SDS011;24062;47.480;8.768;2023-08-24T14:41:13;7.43;;;3.60;;
38264;SDS011;24062;47.480;8.768;2023-08-24T14:43:42;10.27;;;4.40;;
38264;SDS011;24062;47.480;8.768;2023-08-24T14:46:09;9.40;;;4.35;;
38264;SDS011;24062;47.480;8.768;2023-08-24T14:48:36;7.13;;;3.53;;
38264;SDS011;24062;47.480;8.768;2023-08-24T14:51:04;9.45;;;4.32;;
38264;SDS011;24062;47.480;8.768;2023-08-24T14:53:31;7.32;;;4.28;;
38264;SDS011;24062;47.480;8.768;2023-08-24T14:55:58;5.60;;;3.67;;